| Date | Time | Temp. (oF) | Dew Point (oF) | Rel. Hum. (%) | Press. (in.) | Wind Dir. | Wind Speed (mph) | Hourly Rainfall (in.) |
|
|---|---|---|---|---|---|---|---|---|---|
| 1 | 01/20 | 00:00 | 31 | 26 | 82 | 29.96 | WSW | 4 | 0.00 |
| 2 | 01/19 | 23:00 | 30 | 24 | 81 | 29.96 | S | 2 | 0.00 |
| 3 | 01/19 | 22:00 | 30 | 24 | 79 | 29.97 | E | 0 | 0.00 |
| 4 | 01/19 | 21:00 | 31 | 24 | 76 | 29.96 | NE | 3 | 0.00 |
| 5 | 01/19 | 20:00 | 31 | 24 | 75 | 29.96 | NW | 3 | 0.00 |
| 6 | 01/19 | 19:00 | 30 | 22 | 73 | 29.93 | SW | 8 | 0.00 |
| 7 | 01/19 | 18:00 | 30 | 20 | 67 | 29.97 | SSW | 7 | 0.00 |
| 8 | 01/19 | 17:00 | 30 | 18 | 62 | 29.99 | SSE | 7 | 0.00 |
| 9 | 01/19 | 16:00 | 30 | 15 | 54 | 30.03 | SSW | 8 | 0.00 |
| 10 | 01/19 | 15:00 | 31 | 14 | 51 | 30.02 | SSW | 8 | 0.00 |
| 11 | 01/19 | 14:00 | 31 | 14 | 51 | 30.05 | SSW | 15 | 0.00 |
| 12 | 01/19 | 13:00 | 31 | 15 | 52 | 30.10 | SW | 14 | 0.00 |
| 13 | 01/19 | 12:00 | 30 | 14 | 53 | 30.14 | S | 9 | 0.00 |
| 14 | 01/19 | 11:00 | 28 | 16 | 61 | 30.18 | S | 5 | 0.00 |
| 15 | 01/19 | 10:00 | 25 | 15 | 66 | 30.22 | S | 2 | 0.00 |
| 16 | 01/19 | 09:00 | 22 | 14 | 71 | 30.24 | SW | 2 | 0.00 |
| 17 | 01/19 | 08:00 | 16 | 14 | 92 | 30.24 | SSW | 1 | 0.00 |
| 18 | 01/19 | 07:00 | 16 | 13 | 91 | 30.23 | SE | 3 | 0.00 |
| 19 | 01/19 | 06:00 | 17 | 14 | 91 | 30.20 | SSE | 1 | 0.00 |
| 20 | 01/19 | 05:00 | 18 | 14 | 87 | 30.19 | ESE | 2 | 0.00 |
| 21 | 01/19 | 04:00 | 17 | 15 | 95 | 30.21 | ENE | 2 | 0.00 |
| 22 | 01/19 | 03:00 | 18 | 16 | 95 | 30.21 | ENE | 2 | 0.00 |
| 23 | 01/19 | 02:00 | 19 | 15 | 86 | 30.21 | ESE | 1 | 0.00 |
| 24 | 01/19 | 01:00 | 22 | 16 | 78 | 30.21 | NE | 1 | 0.00 |